Time;durP1;ratioP1;P1;durP2;ratioP2;P2;SDS_P1;SDS_P2;PMS_P1;PMS_P2;Temp;Humidity;BMP_temperature;BMP_pressure;BME280_temperature;BME280_humidity;BME280_pressure;Samples;Min_cycle;Max_cycle;Signal;HPM_P1;HPM_P2
2024/01/19 00:01:39;;;;;;;13.23;5.77;;;-0.10;99.90;;;;;;5117789;27;20192;-64
2024/01/19 00:04:08;;;;;;;6.93;6.10;;;-0.10;99.90;;;;;;5111863;28;20313;-64
2024/01/19 00:06:39;;;;;;;9.30;5.87;;;-0.10;99.90;;;;;;5116230;27;20540;-63
2024/01/19 00:09:08;;;;;;;11.93;6.23;;;-0.10;99.90;;;;;;5132212;27;20573;-65
2024/01/19 00:11:37;;;;;;;10.77;5.33;;;-0.10;99.90;;;;;;5132378;27;20218;-64
2024/01/19 00:14:06;;;;;;;10.37;5.57;;;0.00;99.90;;;;;;5114753;27;20621;-65
2024/01/19 00:16:34;;;;;;;9.30;6.23;;;-0.10;99.90;;;;;;5111644;28;20286;-65
2024/01/19 00:19:02;;;;;;;6.47;4.77;;;0.00;99.90;;;;;;5111779;28;20245;-64
2024/01/19 00:21:31;;;;;;;9.27;5.47;;;0.00;99.90;;;;;;5111728;28;20199;-66
2024/01/19 00:23:59;;;;;;;8.50;5.80;;;0.10;99.90;;;;;;5111779;28;20192;-65
2024/01/19 00:26:27;;;;;;;6.50;4.90;;;0.00;99.90;;;;;;5111860;28;20242;-65
2024/01/19 00:28:57;;;;;;;9.50;5.57;;;-0.10;99.90;;;;;;5111525;28;20201;-64
2024/01/19 00:31:26;;;;;;;12.00;6.17;;;-0.10;99.90;;;;;;5111355;28;20219;-65
2024/01/19 00:33:55;;;;;;;8.63;5.23;;;-0.10;99.90;;;;;;5111262;28;20200;-64
2024/01/19 00:36:23;;;;;;;12.77;6.00;;;-0.20;99.90;;;;;;5092715;28;20195;-65
2024/01/19 00:38:52;;;;;;;10.47;6.03;;;-0.20;99.90;;;;;;5110848;28;20224;-65
2024/01/19 00:41:20;;;;;;;8.17;5.93;;;-0.20;99.90;;;;;;5117100;27;20576;-65
2024/01/19 00:43:49;;;;;;;11.80;6.57;;;0.00;99.90;;;;;;5120836;27;20237;-65
2024/01/19 00:46:19;;;;;;;10.80;5.90;;;0.00;99.90;;;;;;5131765;27;20229;-64
2024/01/19 00:48:47;;;;;;;9.83;6.10;;;0.00;99.90;;;;;;5112833;27;20563;-64
2024/01/19 00:51:16;;;;;;;9.30;6.47;;;0.00;99.90;;;;;;5131363;27;20278;-64
2024/01/19 00:53:44;;;;;;;12.67;5.37;;;0.00;99.90;;;;;;5131199;27;20195;-64
2024/01/19 00:56:15;;;;;;;9.53;6.27;;;-0.10;99.90;;;;;;5131244;27;20680;-65
2024/01/19 00:58:44;;;;;;;9.00;5.30;;;-0.10;99.90;;;;;;5131104;27;20226;-64
2024/01/19 01:01:13;;;;;;;7.93;5.37;;;-0.10;99.90;;;;;;5131141;27;20690;-63
2024/01/19 01:03:43;;;;;;;11.57;6.07;;;-0.20;99.90;;;;;;5131275;27;20190;-64
2024/01/19 01:06:11;;;;;;;7.77;5.23;;;-0.20;99.90;;;;;;5131205;27;20199;-65
2024/01/19 01:08:40;;;;;;;6.33;5.37;;;-0.20;99.90;;;;;;5131301;27;20214;-65
2024/01/19 01:11:07;;;;;;;8.87;5.60;;;-0.20;99.90;;;;;;5131114;27;20195;-65
2024/01/19 01:13:36;;;;;;;6.33;5.00;;;-0.20;99.90;;;;;;5130996;27;20222;-64
2024/01/19 01:16:05;;;;;;;15.00;5.67;;;-0.20;99.90;;;;;;5131223;27;20196;-64
2024/01/19 01:18:33;;;;;;;11.80;6.10;;;-0.10;99.90;;;;;;5131013;27;20198;-64
2024/01/19 01:21:03;;;;;;;10.07;5.73;;;-0.30;99.90;;;;;;5131144;27;20216;-65
2024/01/19 01:23:32;;;;;;;11.53;6.13;;;-0.40;99.90;;;;;;5131271;27;20338;-64
2024/01/19 01:26:00;;;;;;;8.77;5.23;;;-0.30;99.90;;;;;;5131118;27;20191;-65
2024/01/19 01:28:28;;;;;;;7.03;5.40;;;-0.40;99.90;;;;;;5131255;27;20202;-63
2024/01/19 01:30:57;;;;;;;9.37;5.83;;;-0.30;99.90;;;;;;5131206;27;20224;-65
2024/01/19 01:33:25;;;;;;;12.83;5.60;;;-0.40;99.90;;;;;;5130850;27;21024;-65
2024/01/19 01:35:53;;;;;;;11.67;5.37;;;-0.30;99.90;;;;;;5130623;27;20195;-64
2024/01/19 01:38:23;;;;;;;11.00;6.47;;;-0.30;99.90;;;;;;5130315;27;20228;-64
2024/01/19 01:40:52;;;;;;;13.67;5.73;;;-0.30;99.90;;;;;;5130808;27;20287;-63
2024/01/19 01:43:22;;;;;;;7.93;5.17;;;-0.30;99.90;;;;;;5130563;27;20201;-64
2024/01/19 01:45:51;;;;;;;8.37;5.87;;;-0.20;99.90;;;;;;5130689;27;20203;-64
2024/01/19 01:48:21;;;;;;;7.57;5.10;;;-0.10;99.90;;;;;;5130397;27;20273;-64
2024/01/19 01:50:50;;;;;;;12.60;6.10;;;-0.20;99.90;;;;;;5130540;27;20219;-64
2024/01/19 01:53:21;;;;;;;14.23;6.50;;;-0.20;99.90;;;;;;5130313;27;20322;-65
2024/01/19 01:55:51;;;;;;;8.07;5.30;;;-0.20;99.90;;;;;;5130478;27;20213;-63
2024/01/19 01:58:20;;;;;;;8.10;5.40;;;-0.20;99.90;;;;;;5130211;27;20202;-64
2024/01/19 02:00:49;;;;;;;8.53;5.20;;;-0.10;99.90;;;;;;5130483;27;20207;-64
2024/01/19 02:03:17;;;;;;;9.23;5.10;;;-0.10;99.90;;;;;;5111135;27;20224;-64
2024/01/19 02:05:46;;;;;;;7.03;4.83;;;0.00;99.90;;;;;;5129579;27;20199;-64
2024/01/19 02:08:15;;;;;;;10.97;5.00;;;0.00;99.90;;;;;;5130022;27;20633;-64
2024/01/19 02:10:43;;;;;;;9.10;4.77;;;-0.10;99.90;;;;;;5130143;27;20912;-64
2024/01/19 02:13:13;;;;;;;7.53;4.67;;;-0.10;99.90;;;;;;5129873;27;20234;-64
2024/01/19 02:15:42;;;;;;;14.50;4.77;;;0.00;99.90;;;;;;5130007;27;20202;-63
2024/01/19 02:18:12;;;;;;;8.30;4.33;;;0.10;99.90;;;;;;5130011;27;20657;-65
2024/01/19 02:20:40;;;;;;;13.07;4.73;;;0.00;99.90;;;;;;5129868;27;20219;-65
2024/01/19 02:23:14;;;;;;;7.73;4.70;;;0.00;99.90;;;;;;5129895;27;20557;-65
2024/01/19 02:25:44;;;;;;;9.83;4.73;;;0.10;99.90;;;;;;5129589;27;20649;-65
2024/01/19 02:28:12;;;;;;;10.40;5.13;;;0.20;99.90;;;;;;5129894;27;20214;-65
2024/01/19 02:30:41;;;;;;;8.83;5.23;;;0.10;99.90;;;;;;5129974;27;20544;-63
2024/01/19 02:33:10;;;;;;;7.13;4.30;;;0.10;99.90;;;;;;5129897;27;20214;-65
2024/01/19 02:35:38;;;;;;;9.23;4.93;;;0.10;99.90;;;;;;5129910;27;20298;-64
2024/01/19 02:38:07;;;;;;;11.00;4.43;;;0.20;99.90;;;;;;5129457;27;20253;-64
2024/01/19 02:40:35;;;;;;;9.80;4.77;;;0.20;99.90;;;;;;5111166;28;20202;-63
2024/01/19 02:43:05;;;;;;;10.33;5.03;;;0.10;99.90;;;;;;5129529;27;20202;-63
2024/01/19 02:45:33;;;;;;;8.77;4.60;;;0.10;99.90;;;;;;5129807;27;20247;-64
2024/01/19 02:48:01;;;;;;;5.43;4.00;;;0.10;99.90;;;;;;5129815;28;20203;-63
2024/01/19 02:50:30;;;;;;;8.27;4.30;;;0.00;99.90;;;;;;5129527;28;20587;-64
2024/01/19 02:52:58;;;;;;;6.43;4.33;;;0.10;99.90;;;;;;5129461;28;20635;-64
2024/01/19 02:55:26;;;;;;;8.77;4.33;;;0.00;99.90;;;;;;5129280;28;20611;-63
2024/01/19 02:57:55;;;;;;;8.60;4.50;;;0.10;99.90;;;;;;5129387;28;20206;-63
2024/01/19 03:00:25;;;;;;;8.23;4.47;;;0.00;99.90;;;;;;5129030;28;20187;-64
2024/01/19 03:02:53;;;;;;;9.07;4.70;;;0.00;99.90;;;;;;5129373;28;20222;-63
2024/01/19 03:05:21;;;;;;;6.30;4.47;;;0.10;99.90;;;;;;5129072;28;20195;-64
2024/01/19 03:07:50;;;;;;;8.67;4.47;;;0.10;99.90;;;;;;5129189;28;20203;-65
2024/01/19 03:10:18;;;;;;;9.53;4.50;;;0.10;99.90;;;;;;5129129;28;20199;-63
2024/01/19 03:12:47;;;;;;;8.23;4.10;;;0.00;99.90;;;;;;5129081;28;20256;-65
2024/01/19 03:15:15;;;;;;;8.90;4.80;;;0.00;99.90;;;;;;5129617;27;20305;-64
2024/01/19 03:17:45;;;;;;;7.80;4.30;;;-0.10;99.90;;;;;;5133412;27;20187;-64
2024/01/19 03:20:14;;;;;;;8.27;4.70;;;0.00;99.90;;;;;;5133366;27;20238;-65
2024/01/19 03:22:42;;;;;;;6.97;4.50;;;-0.10;99.90;;;;;;5133284;27;20191;-64
2024/01/19 03:25:10;;;;;;;6.13;3.93;;;0.00;99.90;;;;;;5133145;27;20617;-65
2024/01/19 03:27:39;;;;;;;9.27;4.70;;;0.10;99.90;;;;;;5133033;27;20191;-64
2024/01/19 03:30:08;;;;;;;6.47;4.50;;;0.10;99.90;;;;;;5133246;27;20195;-65
2024/01/19 03:32:36;;;;;;;9.87;4.40;;;0.00;99.90;;;;;;5133284;27;20580;-64
2024/01/19 03:35:07;;;;;;;8.93;3.90;;;0.00;99.90;;;;;;5133200;27;20784;-64
2024/01/19 03:37:35;;;;;;;7.57;4.50;;;0.00;99.90;;;;;;5133061;27;20599;-65
2024/01/19 03:40:06;;;;;;;13.20;4.77;;;0.10;99.90;;;;;;5132936;27;20237;-65
2024/01/19 03:42:34;;;;;;;9.50;4.10;;;0.00;99.90;;;;;;5132819;27;20542;-64
2024/01/19 03:45:04;;;;;;;8.53;3.77;;;0.00;99.90;;;;;;5132884;27;20195;-64
2024/01/19 03:47:32;;;;;;;9.30;4.40;;;-0.10;99.90;;;;;;5132893;27;20198;-65
2024/01/19 03:50:01;;;;;;;6.50;3.93;;;0.00;99.90;;;;;;5132738;27;20267;-64
2024/01/19 03:52:31;;;;;;;8.83;3.87;;;-0.10;99.90;;;;;;5132879;27;20279;-64
2024/01/19 03:54:59;;;;;;;6.10;4.03;;;0.00;99.90;;;;;;5132516;27;20218;-64
2024/01/19 03:57:28;;;;;;;8.57;4.30;;;-0.10;99.90;;;;;;5132705;27;20191;-64
2024/01/19 03:59:57;;;;;;;10.97;4.23;;;0.00;99.90;;;;;;5132509;27;20537;-64
2024/01/19 04:02:25;;;;;;;10.13;6.40;;;0.00;99.90;;;;;;5132540;27;20726;-64
2024/01/19 04:04:53;;;;;;;6.10;4.07;;;-0.10;99.90;;;;;;5132442;27;20662;-64
2024/01/19 04:07:22;;;;;;;6.63;4.53;;;-0.10;99.90;;;;;;5132335;27;20183;-63
2024/01/19 04:09:51;;;;;;;8.10;5.00;;;-0.10;99.90;;;;;;5132464;27;20205;-62
2024/01/19 04:12:20;;;;;;;8.57;4.10;;;0.00;99.90;;;;;;5132601;27;20206;-65
2024/01/19 04:14:48;;;;;;;8.50;3.60;;;0.00;99.90;;;;;;5132489;27;20291;-64
2024/01/19 04:17:17;;;;;;;5.50;4.07;;;0.00;99.90;;;;;;5132243;27;20194;-64
2024/01/19 04:19:44;;;;;;;8.20;4.17;;;0.00;99.90;;;;;;5132226;27;20195;-65
2024/01/19 04:22:13;;;;;;;10.70;4.60;;;-0.10;99.90;;;;;;5132428;27;20685;-65
2024/01/19 04:24:41;;;;;;;7.00;4.40;;;-0.10;99.90;;;;;;5132693;27;20192;-64
2024/01/19 04:27:11;;;;;;;6.53;3.90;;;-0.10;99.90;;;;;;5131610;27;20187;-64
2024/01/19 04:29:39;;;;;;;5.97;3.80;;;0.00;99.90;;;;;;5131943;27;20192;-65
2024/01/19 04:32:07;;;;;;;9.50;4.67;;;0.00;99.90;;;;;;5132378;27;20557;-64
2024/01/19 04:34:36;;;;;;;7.20;3.63;;;0.00;99.90;;;;;;5132068;27;20608;-65
2024/01/19 04:37:04;;;;;;;9.70;4.07;;;0.00;99.90;;;;;;5131503;27;20286;-65
2024/01/19 04:39:33;;;;;;;11.33;3.80;;;-0.10;99.90;;;;;;5131856;27;20198;-64
2024/01/19 04:42:01;;;;;;;7.10;4.30;;;-0.10;99.90;;;;;;5131864;27;20199;-63
2024/01/19 04:44:31;;;;;;;7.97;3.87;;;-0.10;99.90;;;;;;5131601;27;20191;-66
2024/01/19 04:46:59;;;;;;;8.47;4.37;;;-0.10;99.90;;;;;;5132066;27;20213;-65
2024/01/19 04:49:27;;;;;;;4.63;4.00;;;-0.10;99.90;;;;;;5131654;27;20199;-64
2024/01/19 04:51:56;;;;;;;8.33;4.17;;;-0.10;99.90;;;;;;5131462;27;20225;-65
2024/01/19 04:54:24;;;;;;;11.33;5.00;;;0.00;99.90;;;;;;5132045;27;20234;-65
2024/01/19 04:56:53;;;;;;;4.73;3.57;;;-0.10;99.90;;;;;;5131781;27;20272;-64
2024/01/19 04:59:21;;;;;;;5.13;3.27;;;-0.10;99.90;;;;;;5131206;27;20203;-65
2024/01/19 05:01:51;;;;;;;7.00;4.10;;;-0.20;99.90;;;;;;5131435;27;20660;-65
2024/01/19 05:04:19;;;;;;;8.67;4.37;;;-0.10;99.90;;;;;;5131293;27;20196;-63
2024/01/19 05:06:47;;;;;;;10.70;4.50;;;0.00;99.90;;;;;;5131404;27;20314;-65
2024/01/19 05:09:16;;;;;;;8.20;4.03;;;-0.20;99.90;;;;;;5130907;27;20199;-63
2024/01/19 05:11:44;;;;;;;7.73;3.87;;;-0.20;99.90;;;;;;5131261;27;20190;-65
2024/01/19 05:14:12;;;;;;;7.83;3.67;;;-0.20;99.90;;;;;;5130946;27;20587;-65
2024/01/19 05:16:40;;;;;;;7.77;3.70;;;-0.30;99.90;;;;;;5130980;27;20210;-64
2024/01/19 05:19:10;;;;;;;8.27;4.07;;;-0.40;99.90;;;;;;5130943;27;20187;-65
2024/01/19 05:21:38;;;;;;;8.10;4.23;;;-0.40;99.90;;;;;;5130811;27;20243;-64
2024/01/19 05:24:07;;;;;;;8.93;4.00;;;-0.40;99.90;;;;;;5131113;27;20220;-65
2024/01/19 05:26:35;;;;;;;7.63;4.40;;;-0.30;99.90;;;;;;5131057;27;20195;-65
2024/01/19 05:29:04;;;;;;;11.20;4.43;;;-0.20;99.90;;;;;;5131106;27;20814;-65
2024/01/19 05:31:32;;;;;;;7.63;4.53;;;-0.20;99.90;;;;;;5130795;27;20199;-64
2024/01/19 05:34:00;;;;;;;5.03;3.80;;;-0.20;99.90;;;;;;5130912;27;22121;-65
2024/01/19 05:36:30;;;;;;;8.67;3.87;;;-0.10;99.90;;;;;;5130976;27;20228;-64
2024/01/19 05:38:58;;;;;;;11.20;4.70;;;-0.10;99.90;;;;;;5129473;27;20292;-64
2024/01/19 05:41:27;;;;;;;5.97;3.83;;;-0.20;99.90;;;;;;5130556;27;20222;-64
2024/01/19 05:43:55;;;;;;;5.53;3.63;;;-0.10;99.90;;;;;;5130386;27;20286;-65
2024/01/19 05:46:23;;;;;;;7.50;4.07;;;0.00;99.90;;;;;;5130275;27;20191;-64
2024/01/19 05:48:52;;;;;;;6.97;3.93;;;-0.10;99.90;;;;;;5130416;27;20198;-65
2024/01/19 05:51:20;;;;;;;9.13;3.50;;;-0.10;99.90;;;;;;5129963;27;20183;-62
2024/01/19 05:53:50;;;;;;;6.67;4.43;;;-0.20;99.90;;;;;;5129989;27;20209;-62
2024/01/19 05:56:18;;;;;;;12.00;4.87;;;-0.10;99.90;;;;;;5129923;27;20672;-63
2024/01/19 05:58:46;;;;;;;7.57;3.97;;;-0.20;99.90;;;;;;5130405;27;20555;-65
2024/01/19 06:01:15;;;;;;;8.23;4.30;;;-0.20;99.90;;;;;;5130000;27;20545;-63
2024/01/19 06:03:43;;;;;;;7.73;4.30;;;-0.30;99.90;;;;;;5129789;27;20203;-63
2024/01/19 06:06:11;;;;;;;11.87;4.43;;;-0.20;99.90;;;;;;5129782;27;20203;-62
2024/01/19 06:08:40;;;;;;;6.77;3.70;;;-0.20;99.90;;;;;;5129733;27;20687;-64
2024/01/19 06:11:09;;;;;;;10.63;4.00;;;-0.20;99.90;;;;;;5129930;27;20191;-62
2024/01/19 06:13:40;;;;;;;7.53;3.83;;;-0.10;99.90;;;;;;5129498;27;20199;-63
2024/01/19 06:16:08;;;;;;;7.30;4.20;;;-0.10;99.90;;;;;;5129629;27;20570;-63
2024/01/19 06:18:37;;;;;;;8.40;4.53;;;-0.10;99.90;;;;;;5129743;27;20251;-64
2024/01/19 06:21:10;;;;;;;9.03;4.07;;;-0.20;99.90;;;;;;5129644;27;20688;-63
2024/01/19 06:23:39;;;;;;;6.67;3.90;;;-0.10;99.90;;;;;;5129648;27;20203;-61
2024/01/19 06:26:12;;;;;;;6.47;4.40;;;-0.20;99.90;;;;;;5129482;27;20198;-62
2024/01/19 06:28:41;;;;;;;6.10;4.00;;;-0.10;99.90;;;;;;5129657;27;20219;-63
2024/01/19 06:31:10;;;;;;;5.90;3.93;;;-0.10;99.90;;;;;;5129325;27;20199;-65
2024/01/19 06:33:39;;;;;;;5.53;3.57;;;-0.20;99.90;;;;;;5129512;27;20256;-63
2024/01/19 06:36:10;;;;;;;7.73;4.17;;;-0.30;99.90;;;;;;5129346;27;20222;-63
2024/01/19 06:38:39;;;;;;;6.30;3.63;;;-0.30;99.90;;;;;;5129122;27;20234;-63
2024/01/19 06:41:07;;;;;;;4.57;3.70;;;-0.10;99.90;;;;;;5129349;27;20198;-63
2024/01/19 06:43:37;;;;;;;7.30;3.80;;;-0.20;99.90;;;;;;5129567;27;20199;-63
2024/01/19 06:46:06;;;;;;;7.50;3.80;;;-0.20;99.90;;;;;;5129345;27;20633;-63
2024/01/19 06:48:34;;;;;;;5.20;4.27;;;-0.20;99.90;;;;;;5129302;28;20298;-63
2024/01/19 06:51:03;;;;;;;5.97;3.77;;;-0.20;99.90;;;;;;5129110;27;20191;-63
2024/01/19 06:53:31;;;;;;;5.63;3.70;;;-0.30;99.90;;;;;;5129255;28;20906;-63
2024/01/19 06:55:59;;;;;;;8.30;4.17;;;-0.30;99.90;;;;;;5129508;28;20230;-63
2024/01/19 06:58:36;;;;;;;6.23;4.47;;;-0.30;99.90;;;;;;5129284;28;20252;-64
2024/01/19 07:01:05;;;;;;;6.10;4.10;;;-0.30;99.90;;;;;;5129269;28;20202;-64
2024/01/19 07:03:34;;;;;;;8.00;4.60;;;-0.20;99.90;;;;;;5129511;28;20214;-63
2024/01/19 07:06:02;;;;;;;8.10;4.40;;;-0.10;99.90;;;;;;5129483;28;20240;-63
2024/01/19 07:08:30;;;;;;;5.17;4.07;;;-0.10;99.90;;;;;;5129182;28;20205;-64
2024/01/19 07:10:59;;;;;;;6.43;4.20;;;0.00;99.90;;;;;;5129806;28;20218;-64
2024/01/19 07:13:27;;;;;;;7.00;4.00;;;-0.10;99.90;;;;;;5129561;28;20195;-63
2024/01/19 07:15:57;;;;;;;4.00;3.47;;;0.00;99.90;;;;;;5129164;28;20222;-62
2024/01/19 07:18:26;;;;;;;8.10;4.40;;;-0.10;99.90;;;;;;5129253;28;20199;-64
2024/01/19 07:20:55;;;;;;;7.70;3.93;;;0.00;99.90;;;;;;5129197;28;20239;-64
2024/01/19 07:23:23;;;;;;;7.80;4.10;;;0.00;99.90;;;;;;5129128;28;20660;-65
2024/01/19 07:25:52;;;;;;;11.07;5.07;;;0.10;99.90;;;;;;5129080;28;20298;-64
2024/01/19 07:28:20;;;;;;;4.87;3.47;;;0.00;99.90;;;;;;5129063;28;20672;-64
2024/01/19 07:30:48;;;;;;;10.83;4.60;;;0.00;99.90;;;;;;5128816;28;20191;-64
2024/01/19 07:33:18;;;;;;;6.33;4.00;;;0.00;99.90;;;;;;5129164;28;20222;-64
2024/01/19 07:35:49;;;;;;;5.90;3.53;;;0.10;99.90;;;;;;5128802;28;20692;-63
2024/01/19 07:38:18;;;;;;;7.00;3.60;;;0.40;99.90;;;;;;5128647;28;20312;-64
2024/01/19 07:40:46;;;;;;;5.77;4.27;;;0.60;99.90;;;;;;5128962;28;20649;-64
2024/01/19 07:43:14;;;;;;;6.20;3.93;;;0.60;99.90;;;;;;5129274;28;20210;-64
2024/01/19 07:45:43;;;;;;;5.80;3.83;;;0.70;99.90;;;;;;5129064;28;20668;-63
2024/01/19 07:48:11;;;;;;;3.93;3.43;;;0.70;99.90;;;;;;5128750;28;20714;-63
2024/01/19 07:50:41;;;;;;;7.93;3.97;;;0.70;99.90;;;;;;5128767;28;20676;-64
2024/01/19 07:53:09;;;;;;;7.87;4.17;;;0.70;99.90;;;;;;5128797;28;20565;-64
2024/01/19 07:55:37;;;;;;;8.50;3.47;;;0.60;99.90;;;;;;5128677;28;20363;-64
2024/01/19 07:58:06;;;;;;;6.97;3.60;;;0.70;99.90;;;;;;5128758;28;20225;-64
2024/01/19 08:00:34;;;;;;;6.40;4.00;;;0.70;99.90;;;;;;5128616;28;20222;-63
2024/01/19 08:03:03;;;;;;;7.27;3.97;;;0.70;99.90;;;;;;5130827;27;20232;-64
2024/01/19 08:05:32;;;;;;;7.83;3.60;;;0.70;99.90;;;;;;5132746;27;20194;-63
2024/01/19 08:08:01;;;;;;;6.20;3.70;;;0.80;99.90;;;;;;5132357;27;20203;-65
2024/01/19 08:10:32;;;;;;;3.93;3.53;;;0.80;99.90;;;;;;5132243;27;20707;-63
2024/01/19 08:13:00;;;;;;;4.30;3.30;;;1.00;99.90;;;;;;5125993;27;20191;-66
2024/01/19 08:15:28;;;;;;;6.03;3.80;;;1.10;99.90;;;;;;5120997;27;20212;-64
2024/01/19 08:17:57;;;;;;;4.87;3.43;;;1.00;99.90;;;;;;5112038;28;20191;-63
2024/01/19 08:20:25;;;;;;;6.70;3.80;;;1.10;99.90;;;;;;5112130;28;20192;-64
2024/01/19 08:22:54;;;;;;;5.10;3.30;;;1.20;99.90;;;;;;5112219;28;20565;-64
2024/01/19 08:25:23;;;;;;;5.83;3.93;;;1.30;99.90;;;;;;5126954;27;20202;-65
2024/01/19 08:27:52;;;;;;;4.27;3.60;;;1.40;99.90;;;;;;5131664;27;20197;-65
2024/01/19 08:30:21;;;;;;;5.20;4.10;;;1.40;99.90;;;;;;5132267;27;20180;-66
2024/01/19 08:32:49;;;;;;;4.30;3.90;;;1.10;99.90;;;;;;5131878;27;20187;-64
2024/01/19 08:35:18;;;;;;;6.83;4.03;;;1.10;99.90;;;;;;5132198;27;20198;-67
2024/01/19 08:37:46;;;;;;;7.00;4.43;;;1.00;99.90;;;;;;5131465;27;20282;-64
2024/01/19 08:40:14;;;;;;;8.77;4.43;;;1.10;99.90;;;;;;5131767;27;20206;-66
2024/01/19 08:42:45;;;;;;;5.30;3.47;;;0.90;99.90;;;;;;5131459;27;20282;-66
2024/01/19 08:45:13;;;;;;;5.93;3.60;;;1.00;99.90;;;;;;5132074;27;20627;-64
2024/01/19 08:47:41;;;;;;;4.83;3.90;;;1.10;99.90;;;;;;5131549;27;20207;-64
2024/01/19 08:50:10;;;;;;;6.17;4.70;;;1.40;99.90;;;;;;5131578;27;20649;-65
2024/01/19 08:52:38;;;;;;;5.50;3.70;;;1.50;99.90;;;;;;5131772;27;20206;-63
2024/01/19 08:55:07;;;;;;;7.50;3.80;;;1.40;99.90;;;;;;5131192;27;20189;-66
2024/01/19 08:57:35;;;;;;;9.33;4.43;;;1.20;99.90;;;;;;5130550;27;20722;-66
2024/01/19 09:00:07;;;;;;;4.53;4.13;;;1.40;99.90;;;;;;5131406;27;20200;-66
2024/01/19 09:02:36;;;;;;;5.00;3.60;;;1.40;99.90;;;;;;5131831;27;20195;-67
2024/01/19 09:05:11;;;;;;;6.67;4.20;;;1.20;99.90;;;;;;5132267;27;20206;-66
2024/01/19 09:07:40;;;;;;;6.83;4.70;;;1.20;99.90;;;;;;5131877;27;20195;-66
2024/01/19 09:10:09;;;;;;;5.80;3.77;;;1.40;99.90;;;;;;5131373;27;20254;-64
2024/01/19 09:12:37;;;;;;;4.90;4.33;;;1.40;99.90;;;;;;5131892;27;20191;-64
2024/01/19 09:15:08;;;;;;;5.57;4.80;;;1.50;99.90;;;;;;5132024;27;20188;-63
2024/01/19 09:17:36;;;;;;;5.03;3.93;;;1.60;99.90;;;;;;5131333;27;20236;-64
2024/01/19 09:20:06;;;;;;;5.97;4.33;;;1.70;99.90;;;;;;5131697;27;20195;-67
2024/01/19 09:22:34;;;;;;;11.40;4.67;;;1.70;99.90;;;;;;5131649;27;20206;-66
2024/01/19 09:25:03;;;;;;;5.57;4.80;;;1.50;99.90;;;;;;5130974;27;20201;-66
2024/01/19 09:27:32;;;;;;;5.33;4.47;;;1.30;99.90;;;;;;5132144;27;20183;-67
2024/01/19 09:30:00;;;;;;;7.67;4.57;;;1.20;99.90;;;;;;5131860;27;20209;-65
2024/01/19 09:32:30;;;;;;;7.23;4.27;;;1.40;99.90;;;;;;5131628;27;20194;-69
2024/01/19 09:34:59;;;;;;;6.97;4.77;;;1.60;99.90;;;;;;5131628;27;20200;-66
2024/01/19 09:37:27;;;;;;;5.87;4.03;;;1.60;99.90;;;;;;5131266;27;20243;-67
2024/01/19 09:39:56;;;;;;;10.33;4.70;;;1.70;99.90;;;;;;5130835;27;20201;-65
2024/01/19 09:42:25;;;;;;;4.43;4.03;;;1.90;99.90;;;;;;5027808;28;20229;-67
2024/01/19 09:45:02;;;;;;;5.80;4.30;;;2.00;99.90;;;;;;5027788;28;21086;-67
2024/01/19 09:47:42;;;;;;;4.87;4.37;;;2.00;99.90;;;;;;5028061;28;20214;-66
2024/01/19 09:50:12;;;;;;;6.20;4.40;;;2.00;99.90;;;;;;5027708;28;20213;-66
2024/01/19 09:52:49;;;;;;;6.53;4.73;;;1.90;99.90;;;;;;5027258;28;20206;-65
2024/01/19 09:55:20;;;;;;;6.97;4.93;;;1.70;99.90;;;;;;5026106;28;20218;-66
2024/01/19 09:57:49;;;;;;;7.47;4.63;;;1.50;99.90;;;;;;5026900;28;20783;-69
2024/01/19 10:00:19;;;;;;;7.13;4.50;;;1.50;99.90;;;;;;5063808;27;20200;-68
2024/01/19 10:02:50;;;;;;;5.27;4.27;;;1.60;99.90;;;;;;5130104;27;20195;-69
2024/01/19 10:05:20;;;;;;;7.13;5.03;;;1.70;99.90;;;;;;5130288;27;20252;-67
2024/01/19 10:07:53;;;;;;;8.17;4.77;;;1.90;99.90;;;;;;5130206;27;20191;-67
2024/01/19 10:10:22;;;;;;;7.43;5.33;;;1.80;99.90;;;;;;5130050;27;20923;-68
2024/01/19 10:12:50;;;;;;;7.30;5.10;;;1.70;99.90;;;;;;5130307;27;20191;-68
2024/01/19 10:15:19;;;;;;;6.60;5.17;;;1.70;99.90;;;;;;5130038;27;20672;-68
2024/01/19 10:17:49;;;;;;;6.87;5.33;;;1.60;99.90;;;;;;5130034;27;20277;-64
2024/01/19 10:20:18;;;;;;;8.47;5.37;;;1.50;99.90;;;;;;5130193;27;20954;-64
2024/01/19 10:22:46;;;;;;;8.93;4.90;;;1.40;99.90;;;;;;5130109;27;20204;-67
2024/01/19 10:25:15;;;;;;;8.07;6.33;;;1.50;99.90;;;;;;5129386;27;20199;-66
2024/01/19 10:27:44;;;;;;;10.73;5.60;;;1.80;99.90;;;;;;5129695;27;20558;-68
2024/01/19 10:30:15;;;;;;;8.47;5.40;;;1.90;99.90;;;;;;5129902;27;20187;-67
2024/01/19 10:32:45;;;;;;;6.70;5.37;;;2.00;99.90;;;;;;5129373;27;20195;-67
2024/01/19 10:35:16;;;;;;;10.60;6.07;;;2.10;99.90;;;;;;5129654;27;20226;-65
2024/01/19 10:37:45;;;;;;;10.17;5.83;;;2.00;99.90;;;;;;5129319;27;20712;-67
2024/01/19 10:40:21;;;;;;;7.77;5.17;;;2.00;99.90;;;;;;5129610;27;20199;-66
2024/01/19 10:42:53;;;;;;;6.10;5.33;;;1.90;99.90;;;;;;5129794;27;20296;-67
2024/01/19 10:45:23;;;;;;;10.10;4.70;;;1.90;99.90;;;;;;5129449;27;20192;-69
2024/01/19 10:47:53;;;;;;;10.83;4.93;;;1.90;99.90;;;;;;5129428;27;20199;-66
2024/01/19 10:50:26;;;;;;;6.67;5.13;;;1.90;99.90;;;;;;5129551;28;20222;-65
2024/01/19 10:52:56;;;;;;;7.20;5.50;;;2.00;99.90;;;;;;5129395;28;20196;-69
2024/01/19 10:55:26;;;;;;;9.80;5.70;;;2.40;99.90;;;;;;5129582;28;20292;-69
2024/01/19 10:57:56;;;;;;;8.27;4.73;;;2.50;99.90;;;;;;5129283;28;20260;-67
2024/01/19 11:00:29;;;;;;;9.63;4.60;;;2.40;99.90;;;;;;5129290;28;20195;-67
2024/01/19 11:02:59;;;;;;;8.50;5.07;;;2.40;99.90;;;;;;5129199;28;20704;-68
2024/01/19 11:05:28;;;;;;;5.67;4.97;;;2.50;99.90;;;;;;5129266;28;20203;-67
2024/01/19 11:07:58;;;;;;;8.40;5.40;;;2.30;99.90;;;;;;5129153;28;20268;-66
2024/01/19 11:10:27;;;;;;;9.00;5.87;;;2.30;99.90;;;;;;5128864;28;20211;-67
2024/01/19 11:12:57;;;;;;;5.50;4.87;;;2.20;99.90;;;;;;5129313;28;20199;-67
2024/01/19 11:15:35;;;;;;;8.53;4.87;;;2.10;99.90;;;;;;5129156;28;20195;-69
2024/01/19 11:18:07;;;;;;;6.40;4.90;;;2.10;99.90;;;;;;5128908;28;20270;-67
2024/01/19 11:20:37;;;;;;;5.63;4.70;;;2.20;99.90;;;;;;5129296;28;20226;-65
2024/01/19 11:23:07;;;;;;;5.60;4.30;;;2.10;99.90;;;;;;5129054;28;20204;-64
2024/01/19 11:25:48;;;;;;;5.83;4.60;;;2.20;99.90;;;;;;5129133;28;20193;-66
2024/01/19 11:28:22;;;;;;;6.43;4.80;;;2.10;99.90;;;;;;5129032;28;20689;-64
2024/01/19 11:31:03;;;;;;;7.57;5.17;;;2.00;99.90;;;;;;5129064;28;20231;-65
2024/01/19 11:33:32;;;;;;;7.63;5.40;;;2.10;99.90;;;;;;5128916;28;20209;-64
2024/01/19 11:36:02;;;;;;;7.63;5.50;;;2.00;99.90;;;;;;5129024;27;20196;-66
2024/01/19 11:38:48;;;;;;;6.43;5.40;;;2.10;99.90;;;;;;5131123;27;20240;-65
2024/01/19 11:41:48;;;;;;;9.17;5.07;;;2.30;99.90;;;;;;5132683;27;20193;-66
2024/01/19 11:44:40;;;;;;;8.87;4.43;;;2.20;99.90;;;;;;5132488;27;20700;-66
2024/01/19 11:47:09;;;;;;;8.63;5.77;;;2.20;99.90;;;;;;5132793;27;20210;-64
2024/01/19 11:49:47;;;;;;;8.80;5.60;;;2.20;99.90;;;;;;5132501;27;20268;-65
2024/01/19 11:52:45;;;;;;;7.57;5.10;;;2.30;99.90;;;;;;5132427;27;20661;-63
2024/01/19 11:55:38;;;;;;;6.10;5.47;;;2.10;99.90;;;;;;5028772;28;20560;-68
2024/01/19 11:58:26;;;;;;;7.13;5.20;;;2.30;99.90;;;;;;5028764;28;20329;-63
2024/01/19 12:00:55;;;;;;;8.40;5.93;;;2.50;99.90;;;;;;5028920;28;20616;-66
2024/01/19 12:03:24;;;;;;;8.50;5.43;;;2.60;99.90;;;;;;5028576;28;20206;-67
2024/01/19 12:05:55;;;;;;;7.67;5.27;;;2.60;99.90;;;;;;5028813;28;20203;-66
2024/01/19 12:08:25;;;;;;;8.27;5.37;;;2.60;99.90;;;;;;5028600;28;20829;-63
2024/01/19 12:11:08;;;;;;;7.67;4.80;;;2.60;99.90;;;;;;5028749;28;20558;-65
2024/01/19 12:13:39;;;;;;;8.97;5.17;;;2.40;99.90;;;;;;5028865;28;20212;-65
2024/01/19 12:16:12;;;;;;;7.27;4.90;;;2.40;99.90;;;;;;5028608;28;20199;-67
2024/01/19 12:18:41;;;;;;;11.50;5.30;;;2.40;99.90;;;;;;5028191;28;20726;-66
2024/01/19 12:21:09;;;;;;;9.33;5.23;;;2.60;99.90;;;;;;5028724;28;20197;-65
2024/01/19 12:23:41;;;;;;;7.63;4.67;;;2.80;99.90;;;;;;5028651;28;20211;-63
2024/01/19 12:26:10;;;;;;;7.17;4.23;;;2.70;99.90;;;;;;5028575;28;20202;-63
2024/01/19 12:28:38;;;;;;;6.40;4.10;;;2.80;99.90;;;;;;5028292;28;20205;-65
2024/01/19 12:31:21;;;;;;;8.90;4.87;;;2.70;99.90;;;;;;5080112;27;20201;-64
2024/01/19 12:33:50;;;;;;;7.00;4.50;;;2.60;99.90;;;;;;5131514;27;20193;-66
2024/01/19 12:36:19;;;;;;;6.50;4.30;;;2.60;99.90;;;;;;5131923;27;20208;-69
2024/01/19 12:39:03;;;;;;;7.33;4.43;;;2.40;99.90;;;;;;5131200;27;20230;-65
2024/01/19 12:41:32;;;;;;;30.63;8.43;;;2.20;99.90;;;;;;5131709;27;20209;-69
2024/01/19 12:44:00;;;;;;;15.27;5.27;;;2.30;99.90;;;;;;5131559;27;20603;-63
2024/01/19 12:46:29;;;;;;;9.43;4.07;;;2.20;99.90;;;;;;5131595;27;20207;-66
2024/01/19 12:48:58;;;;;;;5.63;3.63;;;2.20;99.90;;;;;;5130795;27;20210;-69
2024/01/19 12:51:27;;;;;;;6.67;4.00;;;2.00;99.90;;;;;;5131548;27;20192;-64
2024/01/19 12:53:57;;;;;;;5.83;4.13;;;2.10;99.90;;;;;;5131493;27;20200;-63
2024/01/19 12:56:27;;;;;;;7.27;5.03;;;2.20;99.90;;;;;;5131219;27;20193;-65
2024/01/19 12:59:07;;;;;;;6.23;4.33;;;2.40;99.90;;;;;;5131271;27;20218;-66
2024/01/19 13:01:36;;;;;;;6.47;4.93;;;2.70;99.90;;;;;;5131624;27;20574;-66
2024/01/19 13:04:04;;;;;;;7.03;4.60;;;2.90;99.90;;;;;;5131408;27;20246;-64
2024/01/19 13:06:33;;;;;;;5.60;4.00;;;2.90;99.90;;;;;;5131229;27;20572;-66